Time;durP1;ratioP1;P1;durP2;ratioP2;P2;SDS_P1;SDS_P2;PMS_P1;PMS_P2;Temp;Humidity;BMP_temperature;BMP_pressure;BME280_temperature;BME280_humidity;BME280_pressure;Samples;Min_cycle;Max_cycle;Signal;HPM_P1;HPM_P2
2023/06/08 00:01:54;;;;;;;2.33;2.17;;;;;;;18.52;67.65;95283.13;4368463;32;20181;-68
2023/06/08 00:04:22;;;;;;;2.53;2.43;;;;;;;18.17;68.85;95279.50;4351658;32;20181;-67
2023/06/08 00:06:49;;;;;;;3.83;3.60;;;;;;;18.18;68.91;95267.63;4350610;32;20177;-68
2023/06/08 00:09:16;;;;;;;3.57;3.27;;;;;;;18.30;68.75;95278.31;4374396;32;20181;-68
2023/06/08 00:11:41;;;;;;;2.33;2.23;;;;;;;18.20;69.09;95270.75;4370453;32;20194;-67
2023/06/08 00:14:08;;;;;;;2.77;2.60;;;;;;;18.32;68.88;95273.38;4342949;32;20184;-67
2023/06/08 00:16:37;;;;;;;3.17;3.07;;;;;;;18.42;68.33;95275.56;4357173;32;20306;-67
2023/06/08 00:19:07;;;;;;;3.53;3.23;;;;;;;18.44;68.02;95281.38;4362540;32;20201;-67
2023/06/08 00:21:36;;;;;;;2.80;2.60;;;;;;;18.49;68.23;95269.63;4344548;32;20181;-67
2023/06/08 00:24:03;;;;;;;2.00;1.90;;;;;;;18.32;68.39;95276.06;4348509;32;20325;-67
2023/06/08 00:26:29;;;;;;;3.30;3.10;;;;;;;18.30;68.67;95275.63;4358672;32;20193;-68
2023/06/08 00:28:56;;;;;;;3.37;3.17;;;;;;;18.15;68.91;95265.63;4372313;32;20208;-67
2023/06/08 00:31:22;;;;;;;2.47;2.37;;;;;;;18.25;68.64;95267.84;4370063;32;20236;-68
2023/06/08 00:33:49;;;;;;;2.60;2.50;;;;;;;18.22;68.40;95265.84;4377199;32;20180;-68
2023/06/08 00:36:19;;;;;;;3.07;2.87;;;;;;;18.12;68.58;95267.09;4344077;32;20253;-68
2023/06/08 00:38:47;;;;;;;2.77;2.57;;;;;;;17.91;70.05;95266.50;4373910;32;20197;-68
2023/06/08 00:41:14;;;;;;;3.13;3.03;;;;;;;17.81;70.14;95267.78;4364843;32;20192;-68
2023/06/08 00:43:45;;;;;;;3.13;2.87;;;;;;;17.87;70.10;95260.28;4359587;32;20282;-68
2023/06/08 00:46:13;;;;;;;1.77;1.70;;;;;;;18.05;69.56;95266.91;4345817;32;20181;-68
2023/06/08 00:48:40;;;;;;;5.07;3.00;;;;;;;18.01;69.10;95259.87;4355578;32;20216;-68
2023/06/08 00:51:09;;;;;;;4.90;2.63;;;;;;;17.89;69.26;95268.75;4357152;32;20181;-68
2023/06/08 00:53:37;;;;;;;2.73;2.63;;;;;;;17.80;69.69;95255.47;4372733;32;20200;-67
2023/06/08 00:56:05;;;;;;;2.23;2.13;;;;;;;17.79;70.25;95253.91;4370869;32;20210;-67
2023/06/08 00:58:33;;;;;;;2.00;1.90;;;;;;;17.61;69.92;95252.59;4379991;32;20245;-68
2023/06/08 01:01:01;;;;;;;3.07;2.87;;;;;;;17.59;70.44;95260.19;4376936;32;20222;-68
2023/06/08 01:03:33;;;;;;;2.40;2.30;;;;;;;17.76;70.15;95259.97;4368508;32;20185;-68
2023/06/08 01:06:00;;;;;;;3.33;2.40;;;;;;;17.63;69.99;95258.41;4373066;32;20275;-68
2023/06/08 01:09:12;;;;;;;2.70;2.60;;;;;;;17.62;70.16;95259.53;4365254;32;20184;-67
2023/06/08 01:12:16;;;;;;;2.73;2.53;;;;;;;17.59;70.17;95257.53;4357295;32;20251;-68
2023/06/08 01:15:15;;;;;;;3.80;3.50;;;;;;;17.58;69.59;95253.28;4355689;32;20211;-67
2023/06/08 01:17:53;;;;;;;2.50;2.40;;;;;;;17.76;70.01;95259.97;4345876;32;20188;-67
2023/06/08 01:20:29;;;;;;;2.13;2.03;;;;;;;17.64;69.19;95262.69;4315652;32;20193;-68
2023/06/08 01:23:11;;;;;;;1.87;1.87;;;;;;;17.72;69.45;95259.06;4350323;32;20188;-68
2023/06/08 01:25:42;;;;;;;1.87;1.77;;;;;;;17.52;70.65;95255.41;4325331;32;20173;-67
2023/06/08 01:28:16;;;;;;;3.07;2.70;;;;;;;17.45;71.39;95249.06;4360558;32;20193;-68
2023/06/08 01:30:48;;;;;;;2.17;2.10;;;;;;;17.49;70.57;95247.25;4361644;32;20185;-68
2023/06/08 01:33:22;;;;;;;2.37;2.27;;;;;;;17.39;70.10;95242.34;4370161;32;20184;-67
2023/06/08 01:36:27;;;;;;;2.40;2.30;;;;;;;17.47;70.45;95250.25;4371699;32;20203;-67
2023/06/08 01:39:09;;;;;;;2.60;2.40;;;;;;;17.57;70.26;95243.66;4337097;32;20192;-67
2023/06/08 01:41:41;;;;;;;2.17;2.07;;;;;;;17.41;70.40;95245.50;4345783;32;20200;-67
2023/06/08 01:44:39;;;;;;;2.47;2.37;;;;;;;17.33;70.78;95241.03;4387395;32;20264;-66
2023/06/08 01:47:14;;;;;;;3.43;2.40;;;;;;;17.33;70.84;95246.38;4373623;32;20196;-67
2023/06/08 01:49:48;;;;;;;2.23;2.03;;;;;;;17.29;70.09;95246.28;4380743;32;20180;-67
2023/06/08 01:52:16;;;;;;;2.40;2.30;;;;;;;17.15;71.42;95240.50;4368648;32;20194;-66
2023/06/08 01:54:43;;;;;;;1.90;1.80;;;;;;;17.11;71.08;95232.34;4326839;32;20193;-67
2023/06/08 01:57:09;;;;;;;1.93;1.93;;;;;;;17.30;71.17;95226.38;4381120;32;20252;-66
2023/06/08 01:59:35;;;;;;;5.10;3.00;;;;;;;17.13;71.21;95238.13;4374870;32;20246;-67
2023/06/08 02:02:01;;;;;;;2.10;2.00;;;;;;;17.29;70.59;95234.75;4371420;32;20189;-67
2023/06/08 02:04:27;;;;;;;2.00;1.97;;;;;;;17.34;70.70;95238.00;4386990;32;20184;-66
2023/06/08 02:06:55;;;;;;;2.10;2.00;;;;;;;17.30;71.04;95231.75;4361588;32;20206;-67
2023/06/08 02:09:21;;;;;;;8.80;2.33;;;;;;;17.14;70.74;95228.19;4369675;32;20295;-67
2023/06/08 02:11:46;;;;;;;2.77;2.57;;;;;;;16.88;71.33;95236.59;4362807;32;20189;-67
2023/06/08 02:14:12;;;;;;;2.00;1.90;;;;;;;16.99;71.82;95231.56;4373504;32;20189;-66
2023/06/08 02:16:40;;;;;;;3.03;2.87;;;;;;;16.93;71.68;95233.69;4364548;32;20203;-67
2023/06/08 02:19:14;;;;;;;2.17;2.07;;;;;;;16.96;72.09;95233.03;4375389;32;20184;-67
2023/06/08 02:21:40;;;;;;;2.20;2.10;;;;;;;17.12;71.19;95231.22;4371293;32;20339;-66
2023/06/08 02:24:08;;;;;;;2.60;2.50;;;;;;;17.01;71.74;95235.47;4378888;32;20177;-67
2023/06/08 02:26:36;;;;;;;3.10;2.90;;;;;;;16.87;72.28;95239.59;4346820;32;20263;-67
2023/06/08 02:29:02;;;;;;;11.97;3.20;;;;;;;16.75;72.26;95232.34;4352627;32;20197;-67
2023/06/08 02:31:29;;;;;;;2.77;2.57;;;;;;;16.58;72.87;95232.53;4369029;32;20267;-67
2023/06/08 02:33:55;;;;;;;3.50;3.13;;;;;;;16.80;72.48;95224.88;4368274;32;20256;-66
2023/06/08 02:36:23;;;;;;;2.53;2.43;;;;;;;16.63;73.32;95229.59;4365247;32;20173;-67
2023/06/08 02:38:49;;;;;;;2.87;2.77;;;;;;;16.74;71.74;95228.88;4383561;32;20252;-67
2023/06/08 02:41:16;;;;;;;2.33;2.23;;;;;;;16.89;71.94;95226.66;4376652;32;20203;-67
2023/06/08 02:43:41;;;;;;;2.17;2.07;;;;;;;16.74;72.32;95230.78;4355280;32;20185;-67
2023/06/08 02:46:06;;;;;;;5.57;2.67;;;;;;;16.91;72.08;95233.22;4374666;32;20226;-67
2023/06/08 02:48:34;;;;;;;2.13;2.03;;;;;;;16.86;71.94;95233.44;4381036;32;20185;-67
2023/06/08 02:51:02;;;;;;;3.37;3.17;;;;;;;16.66;72.45;95232.44;4357230;32;20188;-67
2023/06/08 02:53:27;;;;;;;2.03;1.93;;;;;;;16.63;72.84;95229.59;4344095;32;20196;-67
2023/06/08 02:55:54;;;;;;;2.37;2.27;;;;;;;16.61;73.16;95227.28;4341771;32;20263;-67
2023/06/08 02:58:23;;;;;;;2.17;2.00;;;;;;;16.71;71.42;95231.44;4374290;32;20181;-66
2023/06/08 03:00:59;;;;;;;2.60;2.50;;;;;;;16.84;72.34;95224.97;4356344;32;20272;-67
2023/06/08 03:03:29;;;;;;;4.37;2.27;;;;;;;16.77;71.89;95216.72;4370051;32;20237;-67
2023/06/08 03:05:59;;;;;;;2.37;2.27;;;;;;;16.50;72.44;95221.56;4358796;32;20204;-67
2023/06/08 03:08:28;;;;;;;2.50;2.40;;;;;;;16.56;72.94;95219.47;4364728;32;20194;-67
2023/06/08 03:10:55;;;;;;;2.63;2.43;;;;;;;16.61;72.01;95221.16;4362675;32;20193;-67
2023/06/08 03:13:22;;;;;;;2.10;2.00;;;;;;;16.43;73.44;95226.69;4363967;32;20208;-67
2023/06/08 03:15:48;;;;;;;1.83;1.77;;;;;;;16.61;72.74;95229.19;4370655;32;20181;-67
2023/06/08 03:18:16;;;;;;;2.10;2.00;;;;;;;16.54;72.59;95235.09;4344158;32;20258;-67
2023/06/08 03:20:43;;;;;;;1.33;1.33;;;;;;;16.65;72.63;95233.56;4374238;32;20185;-66
2023/06/08 03:23:12;;;;;;;2.53;2.37;;;;;;;16.34;72.54;95242.09;4369111;32;20195;-67
2023/06/08 03:25:38;;;;;;;2.30;2.20;;;;;;;16.41;73.69;95236.19;4370185;32;20180;-66
2023/06/08 03:28:04;;;;;;;3.50;3.23;;;;;;;16.32;73.51;95235.50;4359024;32;20259;-66
2023/06/08 03:30:32;;;;;;;2.30;2.20;;;;;;;16.34;72.48;95236.72;4343455;32;20198;-66
2023/06/08 03:33:05;;;;;;;1.87;1.77;;;;;;;16.15;74.27;95249.84;4345845;32;20235;-67
2023/06/08 03:35:32;;;;;;;2.43;2.33;;;;;;;16.20;73.56;95246.97;4369168;32;20208;-66
2023/06/08 03:38:02;;;;;;;2.67;2.37;;;;;;;16.20;73.72;95252.31;4366148;32;20230;-66
2023/06/08 03:40:30;;;;;;;2.53;1.93;;;;;;;16.32;73.09;95255.00;4374142;32;20199;-66
2023/06/08 03:42:57;;;;;;;2.50;1.53;;;;;;;16.19;72.56;95252.66;4371274;32;20185;-66
2023/06/08 03:45:23;;;;;;;2.23;2.13;;;;;;;16.62;73.33;95263.69;4374078;32;20234;-67
2023/06/08 03:47:50;;;;;;;3.00;2.80;;;;;;;16.62;72.26;95262.91;4359099;32;20193;-66
2023/06/08 03:50:16;;;;;;;2.57;2.47;;;;;;;16.38;72.60;95266.31;4375094;32;20181;-67
2023/06/08 03:52:43;;;;;;;2.93;2.73;;;;;;;16.22;73.54;95263.44;4381116;32;20211;-66
2023/06/08 03:55:13;;;;;;;2.83;2.60;;;;;;;16.32;73.65;95264.94;4367418;32;20251;-66
2023/06/08 03:57:41;;;;;;;2.50;2.40;;;;;;;16.02;73.95;95265.06;4365272;32;20258;-67
2023/06/08 04:00:11;;;;;;;2.33;2.00;;;;;;;16.19;73.74;95274.06;4380127;32;20270;-66
2023/06/08 04:02:39;;;;;;;2.00;1.97;;;;;;;16.00;72.81;95271.88;4373372;32;20323;-66
2023/06/08 04:05:06;;;;;;;2.90;2.17;;;;;;;16.04;73.25;95264.72;4361291;32;20235;-66
2023/06/08 04:07:37;;;;;;;2.50;2.30;;;;;;;16.32;73.43;95268.41;4350388;32;20173;-67
2023/06/08 04:10:07;;;;;;;1.80;1.70;;;;;;;16.25;73.29;95262.78;4331424;32;20228;-66
2023/06/08 04:12:33;;;;;;;2.27;2.17;;;;;;;16.35;73.00;95259.72;4371684;32;20295;-67
2023/06/08 04:15:01;;;;;;;1.90;1.90;;;;;;;16.29;73.21;95258.34;4373691;32;20188;-67
2023/06/08 04:17:28;;;;;;;2.23;2.13;;;;;;;16.18;72.70;95259.09;4364771;32;20184;-66
2023/06/08 04:19:55;;;;;;;2.10;2.00;;;;;;;16.27;72.60;95259.78;4361234;32;20180;-67
2023/06/08 04:22:20;;;;;;;6.50;2.40;;;;;;;16.32;72.94;95263.03;4379992;32;20199;-66
2023/06/08 04:24:49;;;;;;;2.53;2.43;;;;;;;16.24;72.65;95268.47;4376267;32;20188;-66
2023/06/08 04:27:16;;;;;;;2.97;2.77;;;;;;;16.22;71.84;95258.09;4373459;32;20181;-67
2023/06/08 04:29:44;;;;;;;2.43;2.23;;;;;;;16.21;72.35;95264.56;4379821;32;20203;-66
2023/06/08 04:32:11;;;;;;;1.93;1.83;;;;;;;16.39;72.50;95260.63;4377515;32;20226;-66
2023/06/08 04:34:38;;;;;;;2.27;2.17;;;;;;;16.40;73.51;95264.88;4358949;32;20263;-66
2023/06/08 04:37:11;;;;;;;2.10;2.00;;;;;;;16.30;72.12;95262.59;4342382;32;20203;-66
2023/06/08 04:39:38;;;;;;;1.50;1.50;;;;;;;16.40;72.16;95275.56;4365628;32;20265;-67
2023/06/08 04:42:08;;;;;;;2.53;2.43;;;;;;;16.39;72.32;95275.91;4358027;32;20192;-67
2023/06/08 04:44:34;;;;;;;2.70;2.50;;;;;;;16.37;72.28;95278.13;4383390;32;20206;-67
2023/06/08 04:47:07;;;;;;;2.20;2.10;;;;;;;16.54;72.40;95275.25;4378801;32;20302;-67
2023/06/08 04:49:36;;;;;;;1.20;1.20;;;;;;;16.60;72.02;95278.50;4366155;32;20338;-67
2023/06/08 04:52:08;;;;;;;2.03;1.97;;;;;;;16.62;71.65;95271.72;4379404;32;20185;-66
2023/06/08 04:54:34;;;;;;;2.03;1.93;;;;;;;16.63;72.37;95277.81;4368675;32;20298;-67
2023/06/08 04:57:00;;;;;;;2.60;2.50;;;;;;;16.68;71.99;95274.97;4345377;32;20188;-67
2023/06/08 04:59:26;;;;;;;2.23;2.13;;;;;;;16.74;71.52;95273.66;4345945;32;20194;-67
2023/06/08 05:01:52;;;;;;;3.17;2.97;;;;;;;16.85;70.98;95277.44;4367871;32;20250;-66
2023/06/08 05:04:20;;;;;;;2.40;2.23;;;;;;;16.88;70.86;95273.31;4365380;32;20188;-67
2023/06/08 05:06:47;;;;;;;2.30;2.20;;;;;;;16.98;70.94;95276.34;4377763;32;20181;-66
2023/06/08 05:09:14;;;;;;;2.23;2.13;;;;;;;16.87;70.32;95277.91;4366331;32;20204;-67
2023/06/08 05:11:41;;;;;;;1.90;1.80;;;;;;;16.96;70.89;95275.91;4376206;32;20200;-67
2023/06/08 05:14:10;;;;;;;1.80;1.77;;;;;;;17.08;70.40;95275.87;4361548;32;20308;-66
2023/06/08 05:16:37;;;;;;;3.33;2.27;;;;;;;17.12;70.36;95274.09;4354520;32;20203;-67
2023/06/08 05:19:11;;;;;;;2.07;1.97;;;;;;;17.15;69.73;95278.03;4363181;32;20260;-67
2023/06/08 05:21:40;;;;;;;2.03;2.03;;;;;;;17.07;70.59;95284.25;4361686;32;20284;-67
2023/06/08 05:24:06;;;;;;;1.43;1.33;;;;;;;17.14;70.14;95287.97;4372526;32;22965;-67
2023/06/08 05:26:49;;;;;;;2.10;1.90;;;;;;;16.94;70.73;95285.38;4369879;32;20220;-66
2023/06/08 05:29:20;;;;;;;1.97;1.87;;;;;;;17.04;71.07;95283.03;4349220;32;20173;-67
2023/06/08 05:31:51;;;;;;;1.63;1.60;;;;;;;17.27;70.44;95285.25;4375565;32;20199;-67
2023/06/08 05:34:22;;;;;;;17.23;2.20;;;;;;;17.42;70.62;95280.03;4363618;32;20313;-67
2023/06/08 05:36:48;;;;;;;1.63;1.63;;;;;;;17.36;69.84;95281.38;4366636;32;20216;-67
2023/06/08 05:39:15;;;;;;;1.90;1.80;;;;;;;17.12;68.95;95278.69;4360211;32;20185;-66
2023/06/08 05:41:43;;;;;;;2.27;2.17;;;;;;;17.31;69.77;95280.78;4356278;32;20189;-67
2023/06/08 05:44:09;;;;;;;2.30;1.77;;;;;;;17.39;69.67;95290.63;4352040;32;20194;-67
2023/06/08 05:46:36;;;;;;;2.83;2.63;;;;;;;17.14;70.15;95277.25;4387110;32;20275;-67
2023/06/08 05:49:03;;;;;;;2.30;2.10;;;;;;;17.33;69.95;95283.94;4360593;32;20184;-66
2023/06/08 05:51:30;;;;;;;1.90;1.83;;;;;;;17.13;70.57;95286.41;4368501;32;20272;-66
2023/06/08 05:53:56;;;;;;;1.93;1.83;;;;;;;17.05;70.09;95289.97;4369232;32;20211;-66
2023/06/08 05:56:28;;;;;;;2.00;1.90;;;;;;;17.02;70.52;95279.16;4350186;32;20200;-66
2023/06/08 05:58:56;;;;;;;2.20;2.07;;;;;;;17.15;70.35;95278.03;4374404;32;20184;-67
2023/06/08 06:01:22;;;;;;;1.60;1.50;;;;;;;17.34;70.20;95275.53;4373724;32;20192;-67
2023/06/08 06:03:50;;;;;;;1.83;1.73;;;;;;;17.48;69.71;95281.34;4375822;32;20188;-67
2023/06/08 06:06:18;;;;;;;1.33;1.33;;;;;;;17.18;68.13;95288.06;4384372;32;20188;-67
2023/06/08 06:08:45;;;;;;;3.53;2.47;;;;;;;17.10;68.55;95275.56;4355344;32;20199;-68
2023/06/08 06:11:12;;;;;;;1.97;1.87;;;;;;;17.38;69.80;95281.81;4359418;32;20222;-67
2023/06/08 06:13:38;;;;;;;2.10;2.00;;;;;;;17.45;68.92;95286.62;4357514;32;20209;-67
2023/06/08 06:16:05;;;;;;;1.47;1.47;;;;;;;17.54;67.88;95279.22;4372078;32;20177;-67
2023/06/08 06:18:32;;;;;;;2.30;1.67;;;;;;;17.67;67.29;95282.66;4366857;32;20223;-67
2023/06/08 06:20:59;;;;;;;2.60;2.47;;;;;;;17.81;67.27;95278.50;4349350;32;20253;-67
2023/06/08 06:23:27;;;;;;;1.80;1.70;;;;;;;17.70;67.73;95272.03;4374970;32;20188;-67
2023/06/08 06:25:54;;;;;;;2.43;2.33;;;;;;;17.72;67.79;95264.44;4349683;32;20232;-67
2023/06/08 06:28:20;;;;;;;2.07;1.97;;;;;;;17.89;68.22;95276.00;4368135;32;20181;-67
2023/06/08 06:30:45;;;;;;;1.40;1.40;;;;;;;18.05;67.15;95272.28;4360353;32;20196;-67
2023/06/08 06:33:12;;;;;;;1.40;1.40;;;;;;;18.10;67.27;95269.34;4375214;32;20203;-66
2023/06/08 06:35:42;;;;;;;3.07;2.50;;;;;;;18.12;67.06;95267.09;4376554;32;20185;-67
2023/06/08 06:38:09;;;;;;;1.90;1.80;;;;;;;18.24;67.33;95268.97;4369871;32;20197;-67
2023/06/08 06:40:36;;;;;;;5.67;2.53;;;;;;;18.33;66.80;95266.09;4373172;32;20201;-66
2023/06/08 06:43:02;;;;;;;2.00;1.87;;;;;;;18.41;66.59;95263.28;4377033;32;20188;-66
2023/06/08 06:45:30;;;;;;;1.53;1.53;;;;;;;18.64;65.07;95265.41;4345824;32;20226;-67
2023/06/08 06:47:55;;;;;;;1.87;1.73;;;;;;;18.67;64.95;95270.09;4371016;32;20192;-67
2023/06/08 06:50:21;;;;;;;2.13;2.03;;;;;;;18.83;64.28;95260.13;4365654;32;20185;-67
2023/06/08 06:52:49;;;;;;;1.40;1.40;;;;;;;19.02;64.27;95265.59;4372185;32;20187;-67
2023/06/08 06:55:16;;;;;;;2.10;2.07;;;;;;;19.10;62.04;95275.37;4366008;32;20242;-67
2023/06/08 06:57:48;;;;;;;1.47;1.47;;;;;;;19.15;61.04;95267.03;4375617;32;20239;-67
2023/06/08 07:00:17;;;;;;;1.93;1.83;;;;;;;19.22;61.66;95264.53;4352604;32;20181;-67
2023/06/08 07:02:43;;;;;;;1.37;1.30;;;;;;;19.28;62.51;95273.09;4372296;32;20207;-67
2023/06/08 07:05:14;;;;;;;2.07;1.97;;;;;;;19.18;62.32;95274.41;4358945;32;20293;-67
2023/06/08 07:07:43;;;;;;;2.33;1.53;;;;;;;19.18;61.97;95274.41;4350583;32;20281;-67
2023/06/08 07:10:08;;;;;;;1.60;1.60;;;;;;;19.25;61.44;95283.78;4368977;32;20185;-66
2023/06/08 07:12:36;;;;;;;1.90;1.50;;;;;;;19.32;61.32;95275.87;4381360;32;20199;-67
2023/06/08 07:15:03;;;;;;;1.83;1.83;;;;;;;19.32;62.00;95278.56;4367099;32;20180;-67
2023/06/08 07:17:30;;;;;;;1.70;1.60;;;;;;;19.31;63.29;95277.78;4368404;32;20240;-67
2023/06/08 07:19:58;;;;;;;2.03;1.93;;;;;;;19.34;62.45;95278.97;4348331;32;20193;-67
2023/06/08 07:22:24;;;;;;;1.77;1.77;;;;;;;19.43;62.03;95274.22;4335241;32;20224;-67
2023/06/08 07:24:54;;;;;;;1.67;1.67;;;;;;;19.48;63.92;95282.00;4364392;32;20277;-67
2023/06/08 07:27:19;;;;;;;1.20;1.20;;;;;;;19.50;63.75;95279.78;4365905;32;20185;-67
2023/06/08 07:29:47;;;;;;;1.80;1.70;;;;;;;19.54;63.98;95269.84;4376427;32;20261;-67
2023/06/08 07:32:15;;;;;;;2.67;2.47;;;;;;;19.58;63.25;95281.47;4369775;32;20273;-67
2023/06/08 07:34:44;;;;;;;2.20;2.03;;;;;;;19.87;61.98;95283.66;4383371;32;20176;-67
2023/06/08 07:37:10;;;;;;;2.27;2.17;;;;;;;20.03;61.30;95280.12;4365923;32;20280;-67
2023/06/08 07:39:37;;;;;;;2.40;2.30;;;;;;;20.06;61.06;95279.41;4361649;32;21938;-67
2023/06/08 07:42:05;;;;;;;1.43;1.43;;;;;;;20.22;60.86;95282.81;4382257;32;20185;-67
2023/06/08 07:44:31;;;;;;;1.47;1.47;;;;;;;20.28;60.29;95276.00;4367669;32;20267;-67
2023/06/08 07:46:58;;;;;;;2.60;2.40;;;;;;;20.40;59.77;95273.16;4357880;32;20181;-67
2023/06/08 07:49:24;;;;;;;2.03;1.93;;;;;;;20.45;59.76;95270.19;4353802;32;20252;-67
2023/06/08 07:51:51;;;;;;;1.60;1.50;;;;;;;20.43;60.77;95267.06;4357847;32;20177;-67
2023/06/08 07:54:19;;;;;;;1.70;1.60;;;;;;;20.48;60.82;95269.47;4354239;32;20197;-67
2023/06/08 07:56:51;;;;;;;1.73;1.73;;;;;;;20.57;60.76;95269.25;4368055;32;20172;-67
2023/06/08 07:59:17;;;;;;;1.13;1.13;;;;;;;20.74;59.98;95265.31;4339911;32;20177;-67
2023/06/08 08:01:44;;;;;;;1.70;1.60;;;;;;;20.74;60.80;95268.00;4369325;32;20184;-67
2023/06/08 08:04:10;;;;;;;4.00;2.53;;;;;;;20.78;61.85;95266.94;4372895;32;20188;-67
2023/06/08 08:06:37;;;;;;;2.10;2.00;;;;;;;20.90;59.83;95268.66;4357431;32;20231;-67
2023/06/08 08:09:04;;;;;;;1.83;1.73;;;;;;;20.90;59.55;95260.56;4370317;32;20185;-67
2023/06/08 08:11:31;;;;;;;2.33;2.13;;;;;;;20.95;60.61;95265.69;4367838;32;20195;-66
2023/06/08 08:13:56;;;;;;;1.40;1.40;;;;;;;20.96;60.65;95256.44;4343359;32;20177;-67
2023/06/08 08:16:23;;;;;;;1.70;1.60;;;;;;;21.04;60.73;95258.09;4371141;32;20255;-67
2023/06/08 08:18:48;;;;;;;3.10;2.90;;;;;;;21.09;59.12;95252.41;4363527;32;20199;-67
2023/06/08 08:21:16;;;;;;;2.43;2.27;;;;;;;21.16;59.44;95255.22;4380677;32;20185;-67
2023/06/08 08:23:41;;;;;;;2.77;2.30;;;;;;;21.29;58.62;95252.34;4377276;32;20185;-67
2023/06/08 08:26:11;;;;;;;2.07;1.97;;;;;;;21.33;59.10;95253.94;4376491;32;20192;-67
2023/06/08 08:28:41;;;;;;;1.13;1.13;;;;;;;21.30;59.67;95245.78;4378058;32;20569;-67
2023/06/08 08:31:08;;;;;;;1.80;1.70;;;;;;;21.36;59.23;95247.06;4390053;32;20199;-67
2023/06/08 08:33:35;;;;;;;1.30;1.30;;;;;;;21.39;59.71;95257.12;4351426;32;20220;-67
2023/06/08 08:36:21;;;;;;;2.10;1.90;;;;;;;21.42;59.02;95259.84;4362768;32;20193;-67
2023/06/08 08:38:46;;;;;;;2.13;2.03;;;;;;;21.47;59.07;95250.66;4366054;32;20196;-67
2023/06/08 08:41:17;;;;;;;1.93;1.83;;;;;;;21.51;58.50;95259.59;4378376;32;20223;-67
2023/06/08 08:43:57;;;;;;;4.07;2.07;;;;;;;21.51;58.21;95254.97;4354171;32;20189;-67
2023/06/08 08:46:25;;;;;;;1.27;1.27;;;;;;;21.50;58.97;95258.81;4382714;32;20227;-67
2023/06/08 08:49:13;;;;;;;1.13;1.13;;;;;;;21.53;59.81;95250.00;4352698;32;20181;-67
2023/06/08 08:51:40;;;;;;;1.53;1.53;;;;;;;21.60;59.95;95252.03;4349938;32;20283;-67
2023/06/08 08:54:07;;;;;;;1.60;1.60;;;;;;;21.72;58.43;95254.50;4349102;32;20199;-67
2023/06/08 08:56:36;;;;;;;1.60;1.50;;;;;;;21.76;58.59;95249.91;4338282;32;20222;-67
2023/06/08 08:59:08;;;;;;;1.30;1.17;;;;;;;21.66;58.39;95253.25;4360218;32;20180;-67
2023/06/08 09:01:34;;;;;;;1.20;1.20;;;;;;;21.79;57.69;95243.00;4345340;32;20195;-67
2023/06/08 09:04:09;;;;;;;1.13;1.13;;;;;;;21.74;58.45;95249.50;4359993;32;20260;-67
2023/06/08 09:06:35;;;;;;;1.53;1.53;;;;;;;21.79;58.01;95241.09;4356961;32;20230;-67
2023/06/08 09:09:01;;;;;;;1.50;1.50;;;;;;;21.83;58.52;95250.00;4376719;32;20204;-67
2023/06/08 09:11:28;;;;;;;0.80;0.80;;;;;;;21.83;59.14;95239.19;4360723;32;20196;-67
2023/06/08 09:14:23;;;;;;;1.33;1.33;;;;;;;21.92;58.33;95237.00;4377518;32;20241;-67
2023/06/08 09:16:49;;;;;;;1.80;1.70;;;;;;;22.02;58.07;95246.41;4374510;32;20189;-67
2023/06/08 09:19:15;;;;;;;2.73;1.87;;;;;;;22.02;58.16;95241.00;4369029;32;20181;-67
2023/06/08 09:21:44;;;;;;;1.00;1.00;;;;;;;22.05;58.78;95234.84;4359451;32;20191;-67
2023/06/08 09:24:19;;;;;;;2.30;2.20;;;;;;;22.12;58.82;95245.75;4369058;32;20235;-67
2023/06/08 09:26:59;;;;;;;1.47;1.47;;;;;;;22.11;58.58;95229.91;4378835;32;20202;-67
2023/06/08 09:29:44;;;;;;;2.87;2.10;;;;;;;22.20;59.37;95233.09;4358058;32;20207;-67
2023/06/08 09:32:17;;;;;;;1.83;1.67;;;;;;;22.13;59.43;95225.69;4349972;32;20251;-67
2023/06/08 09:34:50;;;;;;;1.80;1.80;;;;;;;22.21;59.29;95221.16;4354909;32;20211;-67
2023/06/08 09:37:15;;;;;;;1.93;1.83;;;;;;;22.37;59.31;95219.00;4382124;32;20199;-67
2023/06/08 09:39:45;;;;;;;1.27;1.27;;;;;;;22.28;61.05;95221.22;4353350;32;20189;-67
2023/06/08 09:42:12;;;;;;;1.67;1.57;;;;;;;22.27;60.69;95222.34;4354277;32;20181;-67
2023/06/08 09:44:38;;;;;;;1.30;1.30;;;;;;;22.23;60.51;95218.84;4363558;32;20273;-67
2023/06/08 09:47:28;;;;;;;2.07;1.97;;;;;;;22.05;60.48;95213.22;4376181;32;20208;-67
2023/06/08 09:49:56;;;;;;;2.40;2.20;;;;;;;22.30;59.50;95208.09;4351042;32;20268;-67
2023/06/08 09:52:23;;;;;;;4.80;1.97;;;;;;;22.36;59.82;95206.63;4356877;32;20184;-67
2023/06/08 09:55:00;;;;;;;1.80;1.80;;;;;;;22.46;60.66;95205.16;4324213;32;20196;-66
2023/06/08 09:57:27;;;;;;;1.73;1.63;;;;;;;22.60;60.85;95211.50;4374829;32;20247;-68
2023/06/08 10:00:14;;;;;;;1.80;1.70;;;;;;;22.76;60.32;95208.53;4363837;32;20308;-69
2023/06/08 10:03:10;;;;;;;3.70;2.07;;;;;;;22.84;60.29;95209.41;4375272;32;20189;-69
2023/06/08 10:05:38;;;;;;;1.10;1.10;;;;;;;22.90;58.91;95205.19;4385027;32;20196;-66
2023/06/08 10:08:07;;;;;;;0.80;0.80;;;;;;;23.01;56.62;95213.41;4374822;32;20286;-66
2023/06/08 10:10:38;;;;;;;1.10;1.10;;;;;;;23.06;57.67;95213.84;4380288;32;20305;-69
2023/06/08 10:13:09;;;;;;;2.03;2.00;;;;;;;22.91;58.41;95215.63;4326748;32;20220;-68
2023/06/08 10:15:37;;;;;;;1.20;1.20;;;;;;;22.84;59.12;95198.59;4366540;32;20268;-66
2023/06/08 10:18:05;;;;;;;2.30;1.63;;;;;;;22.82;59.12;95200.88;4355538;32;20207;-67
2023/06/08 10:20:33;;;;;;;1.50;1.40;;;;;;;22.87;58.05;95197.81;4372398;32;20181;-67
2023/06/08 10:23:05;;;;;;;1.07;1.07;;;;;;;22.84;57.43;95191.25;4334978;32;20203;-67
2023/06/08 10:25:31;;;;;;;0.90;0.90;;;;;;;22.94;56.96;95185.13;4369720;32;20181;-67
2023/06/08 10:28:11;;;;;;;1.30;1.20;;;;;;;23.00;56.99;95190.19;4363943;32;20275;-67
2023/06/08 10:30:40;;;;;;;1.17;1.17;;;;;;;23.19;56.75;95182.59;4374368;32;20247;-67
2023/06/08 10:33:24;;;;;;;1.37;0.97;;;;;;;23.28;56.50;95191.16;4372302;32;20205;-66
2023/06/08 10:36:12;;;;;;;0.87;0.87;;;;;;;23.25;55.63;95181.09;4360469;32;20226;-67
2023/06/08 10:38:54;;;;;;;2.53;1.40;;;;;;;23.30;55.16;95183.41;4311515;32;20253;-67
